Time;durP1;ratioP1;P1;durP2;ratioP2;P2;SDS_P1;SDS_P2;PMS_P1;PMS_P2;Temp;Humidity;BMP_temperature;BMP_pressure;BME280_temperature;BME280_humidity;BME280_pressure;Samples;Min_cycle;Max_cycle;Signal;HPM_P1;HPM_P2
2022/09/14 00:01:56;;;;;;;24.27;6.55;;;24.00;87.20;;;;;;5031236;28;20434;-63
2022/09/14 00:04:21;;;;;;;23.58;5.63;;;24.00;87.30;;;;;;5033541;28;20040;-63
2022/09/14 00:06:47;;;;;;;21.10;6.05;;;24.00;87.30;;;;;;5035727;28;20030;-63
2022/09/14 00:09:18;;;;;;;29.55;5.63;;;24.00;87.50;;;;;;5039886;28;20092;-63
2022/09/14 00:11:43;;;;;;;24.75;6.20;;;24.00;87.40;;;;;;5020416;28;20079;-63
2022/09/14 00:14:09;;;;;;;23.77;5.63;;;24.00;87.30;;;;;;5032189;28;20559;-63
2022/09/14 00:16:36;;;;;;;27.42;5.90;;;24.00;87.30;;;;;;5032651;28;20067;-63
2022/09/14 00:19:06;;;;;;;19.27;6.05;;;24.00;87.20;;;;;;5015092;28;20037;-63
2022/09/14 00:21:33;;;;;;;23.48;5.72;;;24.00;87.10;;;;;;5031057;28;20067;-63
2022/09/14 00:23:59;;;;;;;30.77;6.15;;;24.00;87.00;;;;;;5035667;28;20056;-63
2022/09/14 00:26:25;;;;;;;17.73;5.65;;;23.90;87.00;;;;;;5034227;28;20384;-63
2022/09/14 00:28:53;;;;;;;20.55;5.40;;;23.90;87.10;;;;;;5035908;28;20465;-63
2022/09/14 00:31:18;;;;;;;20.95;5.43;;;24.00;87.10;;;;;;5034136;28;20021;-63
2022/09/14 00:33:46;;;;;;;21.38;5.78;;;24.00;87.00;;;;;;5038611;28;20032;-63
2022/09/14 00:36:25;;;;;;;23.08;6.10;;;23.90;87.10;;;;;;5032305;28;20025;-63
2022/09/14 00:38:50;;;;;;;27.85;6.30;;;23.90;87.10;;;;;;5032916;28;20039;-63
2022/09/14 00:41:18;;;;;;;23.38;5.85;;;23.90;87.10;;;;;;5017483;28;20033;-63
2022/09/14 00:44:02;;;;;;;14.38;5.10;;;23.90;87.30;;;;;;5033763;28;20040;-63
2022/09/14 00:46:30;;;;;;;22.25;5.97;;;23.80;87.30;;;;;;5018528;28;20021;-63
2022/09/14 00:48:59;;;;;;;21.48;6.30;;;23.80;87.30;;;;;;5030106;28;20108;-64
2022/09/14 00:51:25;;;;;;;19.25;6.05;;;23.80;87.20;;;;;;5020733;28;20052;-63
2022/09/14 00:53:50;;;;;;;21.70;6.20;;;23.80;87.20;;;;;;5035981;28;20079;-63
2022/09/14 00:56:16;;;;;;;22.65;6.43;;;23.80;87.10;;;;;;5037226;28;20184;-64
2022/09/14 00:58:44;;;;;;;22.23;8.77;;;23.80;87.10;;;;;;5015832;28;20479;-63
2022/09/14 01:01:09;;;;;;;20.25;8.13;;;23.80;87.10;;;;;;5029555;28;20040;-64
2022/09/14 01:03:35;;;;;;;21.02;7.93;;;23.80;87.20;;;;;;5016149;28;20041;-63
2022/09/14 01:06:08;;;;;;;21.02;7.72;;;23.80;87.30;;;;;;5017888;28;20055;-63
2022/09/14 01:08:40;;;;;;;24.20;8.50;;;23.80;87.40;;;;;;5035451;28;20021;-62
2022/09/14 01:11:24;;;;;;;23.20;8.18;;;23.80;87.50;;;;;;5034746;28;20029;-62
2022/09/14 01:14:16;;;;;;;17.70;6.90;;;23.90;87.80;;;;;;5034914;28;20037;-63
2022/09/14 01:17:15;;;;;;;20.90;6.88;;;23.70;87.70;;;;;;5034699;28;20029;-63
2022/09/14 01:20:11;;;;;;;12.40;6.13;;;23.80;87.60;;;;;;5035107;28;20036;-63
2022/09/14 01:22:43;;;;;;;;;;;23.70;87.60;;;;;;5033209;28;20649;-63
2022/09/14 01:25:22;;;;;;;17.85;6.68;;;23.70;87.80;;;;;;5033873;28;19912;-63
2022/09/14 01:27:48;;;;;;;17.42;6.50;;;23.80;87.80;;;;;;5018825;28;20036;-63
2022/09/14 01:30:18;;;;;;;20.75;6.63;;;23.70;87.90;;;;;;5016594;28;20397;-63
2022/09/14 01:32:47;;;;;;;19.02;6.43;;;23.70;87.60;;;;;;5016857;28;20036;-63
2022/09/14 01:35:15;;;;;;;14.65;6.30;;;23.70;87.60;;;;;;5035192;28;20088;-62
2022/09/14 01:38:04;;;;;;;15.00;6.30;;;23.70;87.60;;;;;;5032325;28;20120;-63
2022/09/14 01:40:36;;;;;;;17.00;6.45;;;23.70;87.50;;;;;;5020240;28;20465;-63
2022/09/14 01:43:31;;;;;;;22.95;7.07;;;23.70;87.60;;;;;;5018721;28;20487;-63
2022/09/14 01:45:59;;;;;;;14.50;5.93;;;23.70;87.60;;;;;;5033971;28;20032;-63
2022/09/14 01:48:36;;;;;;;19.02;6.78;;;23.70;87.50;;;;;;5002558;28;20068;-63
2022/09/14 01:51:03;;;;;;;14.70;6.43;;;23.60;87.40;;;;;;5030477;28;20141;-63
2022/09/14 01:53:36;;;;;;;19.55;5.95;;;23.60;87.40;;;;;;5032865;28;20504;-63
2022/09/14 01:56:24;;;;;;;18.20;6.82;;;23.60;87.40;;;;;;5033127;28;20476;-63
2022/09/14 01:58:58;;;;;;;16.13;6.60;;;23.60;87.30;;;;;;5031617;28;20044;-63
2022/09/14 02:01:33;;;;;;;19.60;5.60;;;23.60;87.10;;;;;;5020224;28;20056;-63
2022/09/14 02:04:01;;;;;;;21.60;5.80;;;23.70;87.20;;;;;;5034169;28;20041;-63
2022/09/14 02:06:35;;;;;;;15.63;5.57;;;23.70;87.00;;;;;;5016600;28;20435;-63
2022/09/14 02:09:01;;;;;;;11.60;5.40;;;23.70;86.90;;;;;;5018852;28;20029;-63
2022/09/14 02:11:27;;;;;;;15.18;5.20;;;23.70;86.90;;;;;;5003233;28;20057;-63
2022/09/14 02:13:53;;;;;;;11.38;5.18;;;23.70;86.90;;;;;;5036362;28;20529;-63
2022/09/14 02:16:18;;;;;;;12.40;4.78;;;23.60;86.90;;;;;;5018481;28;20033;-63
2022/09/14 02:18:44;;;;;;;13.68;5.30;;;23.70;86.80;;;;;;5037279;28;20039;-63
2022/09/14 02:21:17;;;;;;;14.98;4.88;;;23.70;86.80;;;;;;5018379;28;20061;-63
2022/09/14 02:23:43;;;;;;;14.13;4.68;;;23.70;86.50;;;;;;5019959;28;20026;-63
2022/09/14 02:26:08;;;;;;;10.45;4.72;;;23.70;86.50;;;;;;5019315;28;20048;-63
2022/09/14 02:28:34;;;;;;;12.32;5.45;;;23.70;86.50;;;;;;5037431;28;20028;-63
2022/09/14 02:31:37;;;;;;;19.90;5.53;;;23.60;86.40;;;;;;5035037;28;20428;-63
2022/09/14 02:34:14;;;;;;;13.00;4.20;;;23.60;86.70;;;;;;5036414;28;20127;-63
2022/09/14 02:37:18;;;;;;;14.57;5.05;;;23.60;86.70;;;;;;5035082;28;20547;-62
2022/09/14 02:40:12;;;;;;;15.85;4.60;;;23.60;86.50;;;;;;5028177;28;20036;-62
2022/09/14 02:42:41;;;;;;;13.13;4.90;;;23.70;86.30;;;;;;5006149;28;20119;-62
2022/09/14 02:45:29;;;;;;;11.25;4.50;;;23.70;86.20;;;;;;5037159;28;20037;-62
2022/09/14 02:48:17;;;;;;;9.73;4.15;;;23.70;86.10;;;;;;5037875;28;20393;-62
2022/09/14 02:50:58;;;;;;;12.55;4.25;;;23.70;86.10;;;;;;5037360;28;20028;-62
2022/09/14 02:53:29;;;;;;;10.60;4.95;;;23.70;86.10;;;;;;5038444;28;20126;-63
2022/09/14 02:56:00;;;;;;;12.57;4.65;;;23.80;86.10;;;;;;5036408;28;20078;-63
2022/09/14 02:58:35;;;;;;;10.32;4.30;;;23.70;86.00;;;;;;5019236;28;20021;-62
2022/09/14 03:01:01;;;;;;;11.05;4.10;;;23.80;86.10;;;;;;5033001;28;20021;-63
2022/09/14 03:03:27;;;;;;;10.75;4.68;;;23.60;86.00;;;;;;5018074;28;20050;-64
2022/09/14 03:05:55;;;;;;;8.02;4.25;;;23.60;86.00;;;;;;5033225;28;20441;-63
2022/09/14 03:08:20;;;;;;;11.15;4.55;;;23.60;86.00;;;;;;5036551;28;20539;-63
2022/09/14 03:10:46;;;;;;;8.75;4.70;;;23.60;85.80;;;;;;5036221;28;20041;-62
2022/09/14 03:13:11;;;;;;;8.52;4.70;;;23.60;85.80;;;;;;5036199;28;20021;-63
2022/09/14 03:15:37;;;;;;;9.43;3.85;;;23.60;85.80;;;;;;5033845;28;20037;-62
2022/09/14 03:18:04;;;;;;;6.07;3.75;;;23.60;85.80;;;;;;5035646;28;20053;-63
2022/09/14 03:20:30;;;;;;;10.35;4.38;;;23.70;85.70;;;;;;5019072;28;20033;-62
2022/09/14 03:22:57;;;;;;;8.35;4.13;;;23.70;85.60;;;;;;5019657;28;20502;-63
2022/09/14 03:25:23;;;;;;;6.60;3.85;;;23.70;85.60;;;;;;5039335;28;20029;-63
2022/09/14 03:27:52;;;;;;;8.90;3.95;;;23.60;85.50;;;;;;5036573;28;20036;-62
2022/09/14 03:30:18;;;;;;;8.90;3.92;;;23.60;85.50;;;;;;5031228;28;20112;-63
2022/09/14 03:32:44;;;;;;;7.28;4.00;;;23.70;85.60;;;;;;5016057;28;20120;-63
2022/09/14 03:35:09;;;;;;;6.70;3.88;;;23.60;85.70;;;;;;5035451;28;20029;-62
2022/09/14 03:37:39;;;;;;;7.93;3.70;;;23.60;85.70;;;;;;5034548;28;20025;-63
2022/09/14 03:40:05;;;;;;;9.52;3.35;;;23.60;85.80;;;;;;5036449;28;20048;-63
2022/09/14 03:42:31;;;;;;;6.78;3.20;;;23.60;85.70;;;;;;5017791;28;20043;-63
2022/09/14 03:44:57;;;;;;;6.75;3.97;;;23.60;85.80;;;;;;5022602;28;20064;-63
2022/09/14 03:47:22;;;;;;;7.47;3.78;;;23.60;85.80;;;;;;5017299;28;20569;-63
2022/09/14 03:49:48;;;;;;;10.18;4.10;;;23.60;85.70;;;;;;5036010;28;20061;-63
2022/09/14 03:52:14;;;;;;;8.70;3.85;;;23.60;85.70;;;;;;5033749;28;20480;-63
2022/09/14 03:54:39;;;;;;;6.80;3.55;;;23.60;85.80;;;;;;5036146;28;20559;-63
2022/09/14 03:57:06;;;;;;;8.02;3.72;;;23.60;85.70;;;;;;5020012;28;20072;-63
2022/09/14 03:59:32;;;;;;;10.38;3.88;;;23.60;85.70;;;;;;5036774;28;20056;-63
2022/09/14 04:01:57;;;;;;;8.73;3.90;;;23.60;85.70;;;;;;5032615;28;20044;-63
2022/09/14 04:04:23;;;;;;;8.60;3.47;;;23.50;85.60;;;;;;5019297;28;20504;-63
2022/09/14 04:06:48;;;;;;;12.45;3.38;;;23.60;85.70;;;;;;5035956;28;20033;-63
2022/09/14 04:09:14;;;;;;;7.38;3.63;;;23.50;85.70;;;;;;5038387;28;20419;-62
2022/09/14 04:11:39;;;;;;;8.15;4.05;;;23.50;85.70;;;;;;5035312;28;20151;-63
2022/09/14 04:14:06;;;;;;;7.97;3.30;;;23.50;85.70;;;;;;5036874;28;20037;-63
2022/09/14 04:16:32;;;;;;;6.50;3.15;;;23.60;85.80;;;;;;5033694;28;20032;-63
2022/09/14 04:18:57;;;;;;;6.40;3.40;;;23.50;85.70;;;;;;5029036;28;20033;-63
2022/09/14 04:21:23;;;;;;;11.65;3.83;;;23.50;85.70;;;;;;5029304;28;20041;-63
2022/09/14 04:23:51;;;;;;;6.85;3.13;;;23.50;85.70;;;;;;5035390;28;20039;-63
2022/09/14 04:26:18;;;;;;;5.55;2.90;;;23.50;85.70;;;;;;5032930;28;20028;-63
2022/09/14 04:28:43;;;;;;;9.40;3.60;;;23.50;85.70;;;;;;5035558;28;20112;-63
2022/09/14 04:31:10;;;;;;;5.80;3.20;;;23.50;85.70;;;;;;5032536;28;20035;-63
2022/09/14 04:33:35;;;;;;;9.00;2.95;;;23.50;85.70;;;;;;5030753;28;20021;-63
2022/09/14 04:36:12;;;;;;;6.32;3.30;;;23.50;85.70;;;;;;5030879;28;20444;-63
2022/09/14 04:38:37;;;;;;;6.20;3.35;;;23.50;85.70;;;;;;5032153;28;20381;-63
2022/09/14 04:41:04;;;;;;;5.32;3.45;;;23.50;85.70;;;;;;5033154;28;20040;-62
2022/09/14 04:43:30;;;;;;;6.13;3.00;;;23.50;85.70;;;;;;5019408;28;20710;-63
2022/09/14 04:46:03;;;;;;;8.43;3.40;;;23.50;85.70;;;;;;5032818;28;20390;-63
2022/09/14 04:48:32;;;;;;;9.25;3.30;;;23.50;85.70;;;;;;5005215;28;20110;-63
2022/09/14 04:51:06;;;;;;;9.63;3.60;;;23.50;85.70;;;;;;5004667;28;20036;-63
2022/09/14 04:53:35;;;;;;;7.07;3.00;;;23.50;85.70;;;;;;5036064;28;20075;-63
2022/09/14 04:56:02;;;;;;;5.65;3.03;;;23.50;85.70;;;;;;5003431;28;20110;-63
2022/09/14 04:58:28;;;;;;;4.55;3.10;;;23.50;85.70;;;;;;5016457;28;20038;-62
2022/09/14 05:00:59;;;;;;;8.63;3.47;;;23.40;85.70;;;;;;5021160;28;20124;-62
2022/09/14 05:03:25;;;;;;;10.60;2.95;;;23.50;85.70;;;;;;5031830;28;20688;-63
2022/09/14 05:05:50;;;;;;;5.32;2.80;;;23.40;85.80;;;;;;5030286;28;20033;-63
2022/09/14 05:08:16;;;;;;;6.07;2.85;;;23.40;85.90;;;;;;5035053;28;20033;-62
2022/09/14 05:10:42;;;;;;;4.55;2.83;;;23.40;85.80;;;;;;5035216;28;20029;-63
2022/09/14 05:13:07;;;;;;;6.15;2.92;;;23.40;85.80;;;;;;5037305;28;20052;-63
2022/09/14 05:15:33;;;;;;;5.63;2.78;;;23.40;85.80;;;;;;5035861;28;20040;-63
2022/09/14 05:17:58;;;;;;;5.47;3.03;;;23.40;85.90;;;;;;5034791;28;20033;-63
2022/09/14 05:20:24;;;;;;;6.15;2.92;;;23.40;85.90;;;;;;5034982;28;20033;-65
2022/09/14 05:22:50;;;;;;;5.00;2.85;;;23.40;86.00;;;;;;5033634;28;20047;-63
2022/09/14 05:25:15;;;;;;;6.90;2.70;;;23.40;86.00;;;;;;5016203;28;20024;-63
2022/09/14 05:27:41;;;;;;;4.75;2.80;;;23.40;86.00;;;;;;5033431;28;20063;-63
2022/09/14 05:30:07;;;;;;;5.47;2.60;;;23.40;86.00;;;;;;5034865;28;20028;-63
2022/09/14 05:32:32;;;;;;;6.32;2.67;;;23.40;86.70;;;;;;5036051;28;20370;-63
2022/09/14 05:34:58;;;;;;;3.67;2.97;;;23.40;86.00;;;;;;5004098;28;20043;-63
2022/09/14 05:37:23;;;;;;;5.68;2.83;;;23.40;86.20;;;;;;5035423;28;20045;-63
2022/09/14 05:39:49;;;;;;;5.15;2.72;;;23.40;86.20;;;;;;5036321;28;20115;-63
2022/09/14 05:42:14;;;;;;;4.15;2.72;;;23.40;86.10;;;;;;5035322;28;20047;-63
2022/09/14 05:44:40;;;;;;;5.65;2.75;;;23.40;86.10;;;;;;5019596;28;20032;-63
2022/09/14 05:47:05;;;;;;;6.13;2.83;;;23.40;86.00;;;;;;5031535;28;20309;-63
2022/09/14 05:49:31;;;;;;;4.80;2.65;;;23.30;86.00;;;;;;5032568;28;20059;-63
2022/09/14 05:51:56;;;;;;;10.35;2.80;;;23.30;86.20;;;;;;5023028;28;20405;-63
2022/09/14 05:54:22;;;;;;;7.93;2.53;;;23.30;86.40;;;;;;5033023;28;20469;-63
2022/09/14 05:56:47;;;;;;;3.67;2.08;;;23.30;86.60;;;;;;5036139;28;20052;-63
2022/09/14 05:59:13;;;;;;;4.80;2.53;;;23.30;86.70;;;;;;5030961;28;20036;-63
2022/09/14 06:01:38;;;;;;;5.72;2.67;;;23.30;86.80;;;;;;5026183;28;20078;-63
2022/09/14 06:04:04;;;;;;;6.13;2.45;;;23.30;86.80;;;;;;5027516;28;20427;-64
2022/09/14 06:06:30;;;;;;;5.60;2.42;;;23.30;87.00;;;;;;5028854;28;20057;-63
2022/09/14 06:08:56;;;;;;;5.05;2.05;;;23.30;87.00;;;;;;5032397;28;20384;-63
2022/09/14 06:11:39;;;;;;;8.30;2.47;;;23.20;87.10;;;;;;5026202;28;20040;-64
2022/09/14 06:14:04;;;;;;;5.78;2.47;;;23.20;87.30;;;;;;5017564;28;20068;-63
2022/09/14 06:16:30;;;;;;;4.88;2.08;;;23.10;87.60;;;;;;5027147;28;20633;-63
2022/09/14 06:18:56;;;;;;;4.57;2.22;;;23.10;87.70;;;;;;5012249;28;20501;-63
2022/09/14 06:21:22;;;;;;;7.70;2.33;;;23.10;87.80;;;;;;5030953;28;20026;-63
2022/09/14 06:23:48;;;;;;;6.10;2.65;;;23.10;87.90;;;;;;5029733;28;20035;-63
2022/09/14 06:26:13;;;;;;;15.10;2.97;;;23.20;88.10;;;;;;5028029;28;20077;-63
2022/09/14 06:28:39;;;;;;;8.30;2.83;;;23.00;88.40;;;;;;5014022;28;20103;-63
2022/09/14 06:31:06;;;;;;;13.57;3.25;;;23.00;88.80;;;;;;5028700;28;20126;-63
2022/09/14 06:33:32;;;;;;;13.00;2.88;;;23.00;89.00;;;;;;5026776;28;20040;-64
2022/09/14 06:36:01;;;;;;;13.50;3.53;;;23.00;89.50;;;;;;5011435;28;20026;-63
2022/09/14 06:38:27;;;;;;;13.25;3.38;;;23.00;89.70;;;;;;5030032;28;20032;-66
2022/09/14 06:40:57;;;;;;;16.52;3.83;;;23.00;89.60;;;;;;5016021;28;20465;-63
2022/09/14 06:43:23;;;;;;;11.63;3.67;;;23.00;90.00;;;;;;5016983;28;20045;-63
2022/09/14 06:45:58;;;;;;;16.42;3.47;;;22.90;90.00;;;;;;5015501;28;20033;-63
2022/09/14 06:48:25;;;;;;;16.65;3.40;;;23.00;90.30;;;;;;5033842;28;20503;-63
2022/09/14 06:50:50;;;;;;;20.00;3.90;;;22.90;90.30;;;;;;5017917;28;20025;-63
2022/09/14 06:53:16;;;;;;;27.67;4.55;;;22.90;90.10;;;;;;5028582;28;20078;-63
2022/09/14 06:55:43;;;;;;;12.80;3.25;;;22.90;89.90;;;;;;5033951;28;20025;-62
2022/09/14 06:58:09;;;;;;;14.35;2.88;;;22.90;89.60;;;;;;5027029;28;20040;-62
2022/09/14 07:00:35;;;;;;;13.13;3.00;;;23.00;89.20;;;;;;5030007;28;20029;-63
2022/09/14 07:03:00;;;;;;;12.45;3.38;;;23.00;88.80;;;;;;5030474;28;20082;-63
2022/09/14 07:05:26;;;;;;;17.60;3.70;;;23.00;88.40;;;;;;5033648;28;20473;-63
2022/09/14 07:07:52;;;;;;;19.23;3.10;;;23.10;87.70;;;;;;5001605;28;20545;-63
2022/09/14 07:10:17;;;;;;;21.65;3.00;;;23.10;87.80;;;;;;5016677;28;20025;-62
2022/09/14 07:12:43;;;;;;;11.73;3.53;;;23.10;87.00;;;;;;5019045;28;20029;-62
2022/09/14 07:15:09;;;;;;;26.00;3.28;;;23.10;86.80;;;;;;5029808;28;20052;-62
2022/09/14 07:17:37;;;;;;;11.23;2.80;;;23.10;86.50;;;;;;5032465;28;20025;-62
2022/09/14 07:20:04;;;;;;;11.07;2.72;;;23.10;86.40;;;;;;5036967;28;20475;-63
2022/09/14 07:22:33;;;;;;;24.50;3.25;;;23.20;86.30;;;;;;5013006;28;20037;-62
2022/09/14 07:24:58;;;;;;;37.88;4.43;;;23.20;86.20;;;;;;5030224;28;20028;-64
2022/09/14 07:27:24;;;;;;;34.80;3.67;;;23.20;86.20;;;;;;5031532;28;20051;-62
2022/09/14 07:29:49;;;;;;;19.58;3.55;;;23.20;86.10;;;;;;5032587;28;20182;-62
2022/09/14 07:32:15;;;;;;;25.85;3.80;;;23.20;86.00;;;;;;5032653;28;20602;-62
2022/09/14 07:34:40;;;;;;;19.38;3.42;;;23.20;86.00;;;;;;5031324;28;20664;-62
2022/09/14 07:37:06;;;;;;;20.77;3.25;;;23.20;86.60;;;;;;5030568;28;20509;-62
2022/09/14 07:39:31;;;;;;;18.27;3.13;;;23.30;85.90;;;;;;5015363;28;20031;-62
2022/09/14 07:41:57;;;;;;;19.27;3.10;;;23.30;85.80;;;;;;5037208;28;20028;-62
2022/09/14 07:44:22;;;;;;;23.00;3.10;;;23.10;85.50;;;;;;5030725;28;21358;-62
2022/09/14 07:46:48;;;;;;;19.42;3.35;;;23.30;85.50;;;;;;5026101;28;20038;-62
2022/09/14 07:49:14;;;;;;;37.90;4.38;;;23.30;85.30;;;;;;5034793;28;20544;-62
2022/09/14 07:51:40;;;;;;;27.23;4.13;;;23.30;85.30;;;;;;5032012;28;20595;-62
2022/09/14 07:54:06;;;;;;;36.92;3.83;;;23.30;85.30;;;;;;5015085;28;20025;-62
2022/09/14 07:56:32;;;;;;;37.70;4.50;;;23.40;85.30;;;;;;5029190;28;20029;-62
2022/09/14 07:58:58;;;;;;;42.10;4.55;;;23.40;85.30;;;;;;5014408;28;20043;-62
2022/09/14 08:01:24;;;;;;;20.17;4.03;;;23.40;85.20;;;;;;5011310;28;20022;-64
2022/09/14 08:03:50;;;;;;;36.42;4.40;;;23.40;85.20;;;;;;4992733;28;20855;-62
2022/09/14 08:06:20;;;;;;;36.17;3.92;;;23.40;85.30;;;;;;5011313;28;20044;-62
2022/09/14 08:08:47;;;;;;;25.73;4.32;;;23.50;85.20;;;;;;5012372;28;20072;-63
2022/09/14 08:11:24;;;;;;;33.38;3.60;;;23.50;85.10;;;;;;5001994;28;20108;-63
2022/09/14 08:13:55;;;;;;;17.15;3.65;;;23.50;85.00;;;;;;5018989;28;20033;-63
2022/09/14 08:16:21;;;;;;;25.00;3.30;;;23.50;85.10;;;;;;5032007;28;20055;-62
2022/09/14 08:18:46;;;;;;;31.00;4.20;;;23.60;85.10;;;;;;5015102;28;20139;-62
2022/09/14 08:21:14;;;;;;;39.22;4.82;;;23.50;85.10;;;;;;5010428;28;20029;-62
2022/09/14 08:23:40;;;;;;;43.22;5.30;;;23.50;85.00;;;;;;5012018;28;20681;-63
2022/09/14 08:26:12;;;;;;;37.00;4.60;;;23.60;85.00;;;;;;5029772;28;20029;-62
2022/09/14 08:28:38;;;;;;;27.40;4.50;;;23.60;85.00;;;;;;5029528;28;20056;-62
2022/09/14 08:31:04;;;;;;;32.70;4.88;;;23.60;85.10;;;;;;5013439;28;20113;-62
2022/09/14 08:33:31;;;;;;;32.25;5.00;;;23.60;85.10;;;;;;5029073;28;20518;-62
2022/09/14 08:35:56;;;;;;;50.17;5.88;;;23.60;85.10;;;;;;5031411;28;20037;-62
2022/09/14 08:38:23;;;;;;;39.22;5.53;;;23.70;85.20;;;;;;5035303;28;20401;-63
2022/09/14 08:40:50;;;;;;;40.65;5.25;;;23.70;85.40;;;;;;5030644;28;20021;-62
2022/09/14 08:43:15;;;;;;;64.68;6.47;;;23.70;85.50;;;;;;5003117;28;20048;-63
2022/09/14 08:45:41;;;;;;;68.97;6.78;;;23.70;85.90;;;;;;5024181;28;20017;-63
2022/09/14 08:48:25;;;;;;;59.22;6.22;;;23.80;86.00;;;;;;4995221;28;20029;-63
2022/09/14 08:50:52;;;;;;;55.78;5.95;;;23.80;86.00;;;;;;5015549;28;20601;-63
2022/09/14 08:53:20;;;;;;;38.85;5.72;;;23.80;86.10;;;;;;5027867;28;20507;-63
2022/09/14 08:55:55;;;;;;;43.38;6.28;;;23.80;86.10;;;;;;5025017;28;20151;-63
2022/09/14 08:58:39;;;;;;;53.78;7.43;;;23.90;86.20;;;;;;5014563;28;20435;-63
2022/09/14 09:01:35;;;;;;;58.38;7.15;;;23.90;86.00;;;;;;5024183;28;20043;-63
2022/09/14 09:04:16;;;;;;;106.53;10.93;;;24.00;85.90;;;;;;5012038;28;20500;-63
2022/09/14 09:07:02;;;;;;;85.45;9.95;;;24.00;86.00;;;;;;5026519;28;20041;-63
2022/09/14 09:09:45;;;;;;;80.05;9.65;;;24.00;86.00;;;;;;5028625;28;20041;-63
2022/09/14 09:12:50;;;;;;;76.88;8.80;;;24.10;86.00;;;;;;5026541;28;20037;-63
2022/09/14 09:15:24;;;;;;;59.35;9.02;;;24.10;85.80;;;;;;5024701;28;20490;-64
2022/09/14 09:17:55;;;;;;;67.47;8.55;;;24.10;86.00;;;;;;5017832;28;20029;-63
2022/09/14 09:20:26;;;;;;;63.65;6.97;;;24.20;85.90;;;;;;5014764;28;20044;-63
2022/09/14 09:23:05;;;;;;;60.00;7.63;;;24.20;86.00;;;;;;5013424;28;23243;-63
2022/09/14 09:25:57;;;;;;;59.03;7.53;;;24.20;85.90;;;;;;5030926;28;20032;-63
2022/09/14 09:28:23;;;;;;;60.53;6.70;;;24.20;85.80;;;;;;5025556;28;20056;-63
2022/09/14 09:30:49;;;;;;;63.47;6.50;;;24.30;85.80;;;;;;4997445;28;20037;-63
2022/09/14 09:33:16;;;;;;;50.85;5.75;;;24.20;85.50;;;;;;5016119;28;20037;-63
2022/09/14 09:35:42;;;;;;;45.53;5.72;;;24.30;85.40;;;;;;5027907;28;20729;-63
2022/09/14 09:38:14;;;;;;;47.90;6.30;;;24.30;85.30;;;;;;5005132;28;20131;-63
2022/09/14 09:40:43;;;;;;;44.88;5.78;;;24.30;85.10;;;;;;5020717;28;20045;-63
2022/09/14 09:43:17;;;;;;;42.03;5.68;;;24.40;85.00;;;;;;5011126;28;20032;-63
2022/09/14 09:45:48;;;;;;;50.53;5.05;;;24.40;84.90;;;;;;5009780;28;20032;-62
2022/09/14 09:48:14;;;;;;;38.88;5.82;;;24.40;84.60;;;;;;5027408;28;20072;-63
2022/09/14 09:50:52;;;;;;;28.80;4.45;;;24.40;84.50;;;;;;5027345;28;20040;-63
2022/09/14 09:53:19;;;;;;;42.35;5.47;;;24.50;84.40;;;;;;5015000;28;20020;-63
2022/09/14 09:55:47;;;;;;;29.13;4.53;;;24.50;84.30;;;;;;5012200;28;20135;-63
2022/09/14 09:58:27;;;;;;;30.63;4.18;;;24.50;84.10;;;;;;5029768;28;20029;-63
2022/09/14 10:01:01;;;;;;;32.65;4.55;;;24.60;84.00;;;;;;5025338;28;20126;-63
2022/09/14 10:03:29;;;;;;;32.75;5.03;;;24.50;83.90;;;;;;5026854;28;20155;-63
2022/09/14 10:06:03;;;;;;;60.53;6.03;;;24.50;83.80;;;;;;5028563;28;20037;-63
2022/09/14 10:08:33;;;;;;;55.83;6.53;;;24.50;83.50;;;;;;4999327;28;20029;-63
2022/09/14 10:11:00;;;;;;;45.88;6.40;;;24.60;83.60;;;;;;5016151;28;20447;-63
2022/09/14 10:13:37;;;;;;;52.75;6.10;;;24.60;83.50;;;;;;5025267;28;20057;-63
2022/09/14 10:16:16;;;;;;;66.70;8.30;;;24.60;83.50;;;;;;5024035;28;20040;-63
2022/09/14 10:18:47;;;;;;;46.08;5.90;;;24.70;83.40;;;;;;4989720;28;20230;-66
2022/09/14 10:21:14;;;;;;;46.00;6.57;;;24.70;83.10;;;;;;5006864;28;20025;-63
2022/09/14 10:23:39;;;;;;;58.95;6.50;;;24.80;83.10;;;;;;4979010;28;20033;-63
2022/09/14 10:26:15;;;;;;;57.28;6.90;;;24.80;82.90;;;;;;5007755;28;20053;-63
2022/09/14 10:28:48;;;;;;;55.53;6.00;;;24.80;82.80;;;;;;5008493;28;21715;-63
2022/09/14 10:31:21;;;;;;;53.88;5.70;;;24.80;82.80;;;;;;5004922;28;20048;-63
2022/09/14 10:33:58;;;;;;;50.00;6.38;;;24.90;82.60;;;;;;5009629;28;20028;-64
2022/09/14 10:36:25;;;;;;;56.13;6.25;;;24.90;82.70;;;;;;5011502;28;20095;-63
2022/09/14 10:39:13;;;;;;;43.58;6.38;;;24.90;82.60;;;;;;5012947;28;20104;-63
2022/09/14 10:41:50;;;;;;;52.45;6.57;;;25.10;82.70;;;;;;5014193;28;20025;-64
2022/09/14 10:44:42;;;;;;;53.65;6.72;;;25.00;82.50;;;;;;5013585;28;20497;-63
2022/09/14 10:47:27;;;;;;;44.08;6.40;;;25.00;82.20;;;;;;5016696;28;20856;-64
2022/09/14 10:50:10;;;;;;;51.13;6.80;;;25.00;82.20;;;;;;5012833;28;20123;-65
2022/09/14 10:52:54;;;;;;;60.22;6.75;;;25.00;82.20;;;;;;5007259;28;20076;-63
2022/09/14 10:55:54;;;;;;;39.75;5.32;;;25.10;82.20;;;;;;5002027;28;20530;-64
2022/09/14 10:58:38;;;;;;;41.65;5.47;;;25.10;82.00;;;;;;5014971;28;20111;-64
2022/09/14 11:01:31;;;;;;;48.67;6.70;;;25.10;81.60;;;;;;5002498;28;20029;-64
2022/09/14 11:04:06;;;;;;;72.30;8.65;;;25.10;81.80;;;;;;5019342;28;20484;-65
2022/09/14 11:06:38;;;;;;;47.90;6.07;;;25.10;82.00;;;;;;5005022;28;21452;-64
2022/09/14 11:09:24;;;;;;;44.45;6.47;;;25.10;81.70;;;;;;5015333;28;20469;-63
2022/09/14 11:12:02;;;;;;;52.03;5.82;;;25.20;81.80;;;;;;5027329;28;20074;-63
2022/09/14 11:15:12;;;;;;;45.97;5.45;;;25.20;81.90;;;;;;5013127;28;20124;-63
2022/09/14 11:17:44;;;;;;;41.67;6.43;;;25.20;81.50;;;;;;5002395;28;20091;-63
2022/09/14 11:20:34;;;;;;;57.45;5.80;;;25.20;81.80;;;;;;5008136;28;20033;-63
2022/09/14 11:23:17;;;;;;;45.72;5.95;;;25.20;81.60;;;;;;5006056;28;20041;-63
2022/09/14 11:25:54;;;;;;;37.85;5.40;;;25.10;81.30;;;;;;5008677;28;20558;-64
2022/09/14 11:28:41;;;;;;;40.22;5.97;;;25.30;81.50;;;;;;5004191;28;20092;-63
2022/09/14 11:31:14;;;;;;;32.92;6.13;;;25.30;81.20;;;;;;5001548;28;20278;-64
2022/09/14 11:33:55;;;;;;;43.17;6.70;;;25.40;80.70;;;;;;5006103;28;20449;-65
2022/09/14 11:36:24;;;;;;;47.25;6.10;;;25.40;81.10;;;;;;4988161;28;20043;-64
2022/09/14 11:38:58;;;;;;;36.20;5.80;;;25.40;80.90;;;;;;5003839;28;20218;-63
2022/09/14 11:41:30;;;;;;;47.53;6.45;;;25.40;80.80;;;;;;5006202;28;20405;-63
2022/09/14 11:44:01;;;;;;;67.88;7.95;;;25.40;80.60;;;;;;5011217;28;20041;-63
2022/09/14 11:46:31;;;;;;;55.97;7.28;;;25.50;80.90;;;;;;5003796;28;20034;-64
2022/09/14 11:49:04;;;;;;;56.45;6.60;;;25.40;80.80;;;;;;4991648;28;20042;-63
2022/09/14 11:51:38;;;;;;;65.53;8.85;;;25.50;81.50;;;;;;5007682;28;20795;-64
2022/09/14 11:54:18;;;;;;;76.13;8.93;;;25.50;80.90;;;;;;4989254;28;20401;-63
2022/09/14 11:56:58;;;;;;;68.15;8.05;;;25.50;80.80;;;;;;4994546;28;20037;-63
2022/09/14 11:59:34;;;;;;;53.83;7.30;;;25.60;80.80;;;;;;5000782;28;20394;-63
2022/09/14 12:02:22;;;;;;;66.00;7.63;;;25.60;80.70;;;;;;5002237;28;20598;-63
2022/09/14 12:05:06;;;;;;;55.90;6.63;;;25.60;80.60;;;;;;5005004;28;20481;-63
2022/09/14 12:07:46;;;;;;;51.65;6.95;;;25.60;80.70;;;;;;5002297;28;20643;-63
2022/09/14 12:10:14;;;;;;;48.22;7.13;;;25.60;80.60;;;;;;5005074;28;20185;-64
2022/09/14 12:12:43;;;;;;;59.55;6.50;;;25.70;80.70;;;;;;5010533;28;20189;-63
2022/09/14 12:15:16;;;;;;;44.85;6.68;;;25.60;80.60;;;;;;5006954;28;20041;-63
2022/09/14 12:17:41;;;;;;;44.70;6.30;;;25.60;80.80;;;;;;5002468;28;21081;-64
2022/09/14 12:20:44;;;;;;;52.65;6.72;;;25.60;80.80;;;;;;5005015;28;20264;-64
2022/09/14 12:23:16;;;;;;;61.22;7.80;;;25.60;81.60;;;;;;4999474;28;20204;-64
2022/09/14 12:25:53;;;;;;;67.88;8.68;;;25.60;80.90;;;;;;5014748;28;20025;-63
2022/09/14 12:28:37;;;;;;;79.40;8.80;;;25.60;81.00;;;;;;5003380;28;20098;-63
2022/09/14 12:31:03;;;;;;;75.25;9.02;;;25.60;81.00;;;;;;5016072;28;20486;-64
2022/09/14 12:33:31;;;;;;;70.35;9.05;;;25.70;81.00;;;;;;5021630;28;20376;-64
2022/09/14 12:36:04;;;;;;;69.90;8.70;;;25.60;81.20;;;;;;5025420;28;20029;-64
2022/09/14 12:38:29;;;;;;;63.22;8.52;;;25.60;81.40;;;;;;5022632;28;20032;-64
2022/09/14 12:41:07;;;;;;;84.05;9.80;;;25.60;81.40;;;;;;5027637;28;20022;-64
2022/09/14 12:43:33;;;;;;;93.72;8.45;;;25.60;81.50;;;;;;5026693;28;20184;-64
2022/09/14 12:46:05;;;;;;;61.85;8.93;;;25.60;81.50;;;;;;5020524;28;20033;-64
2022/09/14 12:48:46;;;;;;;86.93;10.85;;;25.60;81.60;;;;;;5015553;28;20033;-63
2022/09/14 12:51:30;;;;;;;61.33;8.88;;;25.50;81.60;;;;;;5020172;28;20087;-63
2022/09/14 12:54:08;;;;;;;84.32;10.27;;;25.60;81.80;;;;;;5023515;28;20178;-64
2022/09/14 12:56:41;;;;;;;90.95;11.57;;;25.60;82.00;;;;;;5022384;28;20532;-64
2022/09/14 12:59:25;;;;;;;110.75;12.57;;;25.60;82.20;;;;;;5020659;28;20071;-64